Aviation Digital Data Service (ADDS)

Output produced by METARs form (1405 UTC 18 April 2014)
found at http://aviationweather.gov/adds/metars/
 
KMPV 181138Z 1812/1912 22005KT P6SM BKN200 
     FM182000 17010KT P6SM BKN150 
     FM190200 18006KT P6SM BKN090 
     FM190500 21006KT P6SM -SHRA OVC035